sensor_id;sensor_type;location;lat;lon;timestamp;P1;durP1;ratioP1;P2;durP2;ratioP2
23362;SDS011;11853;48.080;11.960;2023-02-28T00:00:24;4.85;;;4.00;;
23362;SDS011;11853;48.080;11.960;2023-02-28T00:02:50;4.85;;;3.97;;
23362;SDS011;11853;48.080;11.960;2023-02-28T00:05:17;4.53;;;3.97;;
23362;SDS011;11853;48.080;11.960;2023-02-28T00:07:44;5.57;;;4.15;;
23362;SDS011;11853;48.080;11.960;2023-02-28T00:10:11;4.85;;;4.00;;
23362;SDS011;11853;48.080;11.960;2023-02-28T00:12:38;4.38;;;3.92;;
23362;SDS011;11853;48.080;11.960;2023-02-28T00:15:08;4.30;;;3.88;;
23362;SDS011;11853;48.080;11.960;2023-02-28T00:17:35;4.75;;;4.22;;
23362;SDS011;11853;48.080;11.960;2023-02-28T00:20:01;4.57;;;4.18;;
23362;SDS011;11853;48.080;11.960;2023-02-28T00:22:29;5.00;;;4.35;;
23362;SDS011;11853;48.080;11.960;2023-02-28T00:24:55;6.45;;;4.80;;
23362;SDS011;11853;48.080;11.960;2023-02-28T00:27:22;4.65;;;4.25;;
23362;SDS011;11853;48.080;11.960;2023-02-28T00:29:48;5.85;;;4.47;;
23362;SDS011;11853;48.080;11.960;2023-02-28T00:32:13;4.50;;;4.10;;
23362;SDS011;11853;48.080;11.960;2023-02-28T00:34:39;5.85;;;4.60;;
23362;SDS011;11853;48.080;11.960;2023-02-28T00:37:05;4.55;;;4.15;;
23362;SDS011;11853;48.080;11.960;2023-02-28T00:39:33;5.63;;;4.57;;
23362;SDS011;11853;48.080;11.960;2023-02-28T00:42:00;4.88;;;4.40;;
23362;SDS011;11853;48.080;11.960;2023-02-28T00:44:25;8.00;;;4.60;;
23362;SDS011;11853;48.080;11.960;2023-02-28T00:46:51;8.23;;;5.05;;
23362;SDS011;11853;48.080;11.960;2023-02-28T00:49:19;4.82;;;4.15;;
23362;SDS011;11853;48.080;11.960;2023-02-28T00:51:45;5.32;;;4.70;;
23362;SDS011;11853;48.080;11.960;2023-02-28T00:54:11;5.45;;;4.57;;
23362;SDS011;11853;48.080;11.960;2023-02-28T00:56:37;5.53;;;4.85;;
23362;SDS011;11853;48.080;11.960;2023-02-28T00:59:03;5.72;;;4.70;;
23362;SDS011;11853;48.080;11.960;2023-02-28T01:01:28;5.00;;;4.47;;
23362;SDS011;11853;48.080;11.960;2023-02-28T01:03:55;6.15;;;4.50;;
23362;SDS011;11853;48.080;11.960;2023-02-28T01:06:21;5.40;;;4.90;;
23362;SDS011;11853;48.080;11.960;2023-02-28T01:08:47;5.15;;;4.50;;
23362;SDS011;11853;48.080;11.960;2023-02-28T01:11:13;7.05;;;4.95;;
23362;SDS011;11853;48.080;11.960;2023-02-28T01:13:41;5.60;;;4.18;;
23362;SDS011;11853;48.080;11.960;2023-02-28T01:16:08;6.93;;;4.65;;
23362;SDS011;11853;48.080;11.960;2023-02-28T01:18:33;6.60;;;4.63;;
23362;SDS011;11853;48.080;11.960;2023-02-28T01:21:03;5.93;;;4.78;;
23362;SDS011;11853;48.080;11.960;2023-02-28T01:23:30;5.40;;;4.68;;
23362;SDS011;11853;48.080;11.960;2023-02-28T01:25:56;5.18;;;4.70;;
23362;SDS011;11853;48.080;11.960;2023-02-28T01:28:21;5.35;;;4.75;;
23362;SDS011;11853;48.080;11.960;2023-02-28T01:30:48;6.15;;;4.93;;
23362;SDS011;11853;48.080;11.960;2023-02-28T01:33:14;6.15;;;5.00;;
23362;SDS011;11853;48.080;11.960;2023-02-28T01:35:40;5.88;;;4.85;;
23362;SDS011;11853;48.080;11.960;2023-02-28T01:38:06;6.30;;;4.93;;
23362;SDS011;11853;48.080;11.960;2023-02-28T01:40:32;6.35;;;5.07;;
23362;SDS011;11853;48.080;11.960;2023-02-28T01:42:57;5.75;;;5.05;;
23362;SDS011;11853;48.080;11.960;2023-02-28T01:45:27;6.55;;;5.15;;
23362;SDS011;11853;48.080;11.960;2023-02-28T01:48:00;7.13;;;5.50;;
23362;SDS011;11853;48.080;11.960;2023-02-28T01:50:31;6.80;;;5.53;;
23362;SDS011;11853;48.080;11.960;2023-02-28T01:55:29;5.43;;;4.93;;
23362;SDS011;11853;48.080;11.960;2023-02-28T01:58:00;7.95;;;5.70;;
23362;SDS011;11853;48.080;11.960;2023-02-28T02:00:30;5.18;;;4.47;;
23362;SDS011;11853;48.080;11.960;2023-02-28T02:03:00;5.65;;;4.88;;
23362;SDS011;11853;48.080;11.960;2023-02-28T02:05:37;5.72;;;5.03;;
23362;SDS011;11853;48.080;11.960;2023-02-28T02:08:19;6.05;;;5.45;;
23362;SDS011;11853;48.080;11.960;2023-02-28T02:10:49;5.93;;;5.32;;
23362;SDS011;11853;48.080;11.960;2023-02-28T02:18:54;6.22;;;5.20;;
23362;SDS011;11853;48.080;11.960;2023-02-28T02:21:54;6.70;;;5.65;;
23362;SDS011;11853;48.080;11.960;2023-02-28T02:24:49;6.32;;;5.72;;
23362;SDS011;11853;48.080;11.960;2023-02-28T02:28:15;7.95;;;5.72;;
23362;SDS011;11853;48.080;11.960;2023-02-28T02:31:05;7.82;;;5.50;;
23362;SDS011;11853;48.080;11.960;2023-02-28T02:36:56;6.38;;;5.72;;
23362;SDS011;11853;48.080;11.960;2023-02-28T02:45:46;7.80;;;6.25;;
23362;SDS011;11853;48.080;11.960;2023-02-28T02:48:18;7.90;;;6.35;;
23362;SDS011;11853;48.080;11.960;2023-02-28T02:50:49;7.00;;;5.97;;
23362;SDS011;11853;48.080;11.960;2023-02-28T02:53:21;6.75;;;6.15;;
23362;SDS011;11853;48.080;11.960;2023-02-28T02:55:52;7.78;;;6.97;;
23362;SDS011;11853;48.080;11.960;2023-02-28T02:58:21;10.38;;;8.05;;
23362;SDS011;11853;48.080;11.960;2023-02-28T03:00:51;7.35;;;6.65;;
23362;SDS011;11853;48.080;11.960;2023-02-28T03:03:20;8.75;;;6.70;;
23362;SDS011;11853;48.080;11.960;2023-02-28T03:05:54;7.53;;;6.70;;
23362;SDS011;11853;48.080;11.960;2023-02-28T03:08:20;7.80;;;7.00;;
23362;SDS011;11853;48.080;11.960;2023-02-28T03:10:50;11.25;;;7.18;;
23362;SDS011;11853;48.080;11.960;2023-02-28T03:18:58;7.78;;;6.97;;
23362;SDS011;11853;48.080;11.960;2023-02-28T03:27:06;8.25;;;7.40;;
23362;SDS011;11853;48.080;11.960;2023-02-28T03:29:42;10.60;;;8.15;;
23362;SDS011;11853;48.080;11.960;2023-02-28T03:32:17;9.30;;;7.45;;
23362;SDS011;11853;48.080;11.960;2023-02-28T03:34:57;9.30;;;7.95;;
23362;SDS011;11853;48.080;11.960;2023-02-28T03:37:31;9.27;;;8.20;;
23362;SDS011;11853;48.080;11.960;2023-02-28T03:40:02;10.40;;;8.77;;
23362;SDS011;11853;48.080;11.960;2023-02-28T03:42:35;9.55;;;8.55;;
23362;SDS011;11853;48.080;11.960;2023-02-28T03:45:12;10.38;;;8.82;;
23362;SDS011;11853;48.080;11.960;2023-02-28T03:47:52;9.68;;;8.75;;
23362;SDS011;11853;48.080;11.960;2023-02-28T03:50:27;10.15;;;8.43;;
23362;SDS011;11853;48.080;11.960;2023-02-28T03:53:23;12.75;;;9.45;;
23362;SDS011;11853;48.080;11.960;2023-02-28T03:56:01;9.88;;;7.97;;
23362;SDS011;11853;48.080;11.960;2023-02-28T04:01:07;10.05;;;8.65;;
23362;SDS011;11853;48.080;11.960;2023-02-28T04:03:37;11.90;;;8.90;;
23362;SDS011;11853;48.080;11.960;2023-02-28T04:06:04;11.27;;;8.63;;
23362;SDS011;11853;48.080;11.960;2023-02-28T04:08:32;9.20;;;8.15;;
23362;SDS011;11853;48.080;11.960;2023-02-28T04:11:04;11.18;;;8.82;;
23362;SDS011;11853;48.080;11.960;2023-02-28T04:13:33;12.25;;;9.10;;
23362;SDS011;11853;48.080;11.960;2023-02-28T04:15:59;9.90;;;8.80;;
23362;SDS011;11853;48.080;11.960;2023-02-28T04:18:25;9.63;;;8.63;;
23362;SDS011;11853;48.080;11.960;2023-02-28T04:20:50;12.63;;;9.73;;
23362;SDS011;11853;48.080;11.960;2023-02-28T04:23:16;23.38;;;17.15;;
23362;SDS011;11853;48.080;11.960;2023-02-28T04:25:42;11.73;;;9.85;;
23362;SDS011;11853;48.080;11.960;2023-02-28T04:28:08;10.73;;;9.05;;
23362;SDS011;11853;48.080;11.960;2023-02-28T04:30:34;10.00;;;9.00;;
23362;SDS011;11853;48.080;11.960;2023-02-28T04:33:00;11.98;;;9.52;;
23362;SDS011;11853;48.080;11.960;2023-02-28T04:35:26;11.38;;;10.07;;
23362;SDS011;11853;48.080;11.960;2023-02-28T04:37:52;11.43;;;9.70;;
23362;SDS011;11853;48.080;11.960;2023-02-28T04:43:39;12.10;;;9.40;;
23362;SDS011;11853;48.080;11.960;2023-02-28T04:46:04;12.30;;;9.60;;
23362;SDS011;11853;48.080;11.960;2023-02-28T04:48:32;12.30;;;9.73;;
23362;SDS011;11853;48.080;11.960;2023-02-28T04:51:03;12.02;;;10.15;;
23362;SDS011;11853;48.080;11.960;2023-02-28T04:56:32;13.88;;;10.38;;
23362;SDS011;11853;48.080;11.960;2023-02-28T04:58:58;14.15;;;10.30;;
23362;SDS011;11853;48.080;11.960;2023-02-28T05:03:49;14.57;;;10.80;;
23362;SDS011;11853;48.080;11.960;2023-02-28T05:06:16;12.93;;;10.70;;
23362;SDS011;11853;48.080;11.960;2023-02-28T05:08:42;12.25;;;10.80;;
23362;SDS011;11853;48.080;11.960;2023-02-28T05:11:29;14.20;;;11.15;;
23362;SDS011;11853;48.080;11.960;2023-02-28T05:13:59;15.55;;;11.88;;
23362;SDS011;11853;48.080;11.960;2023-02-28T05:16:26;13.52;;;11.70;;
23362;SDS011;11853;48.080;11.960;2023-02-28T05:18:51;14.38;;;11.80;;
23362;SDS011;11853;48.080;11.960;2023-02-28T05:21:23;12.48;;;10.85;;
23362;SDS011;11853;48.080;11.960;2023-02-28T05:23:52;13.30;;;11.73;;
23362;SDS011;11853;48.080;11.960;2023-02-28T05:26:18;15.82;;;12.32;;
23362;SDS011;11853;48.080;11.960;2023-02-28T05:28:44;17.85;;;11.95;;
23362;SDS011;11853;48.080;11.960;2023-02-28T05:31:13;14.93;;;11.93;;
23362;SDS011;11853;48.080;11.960;2023-02-28T05:33:38;15.18;;;12.82;;
23362;SDS011;11853;48.080;11.960;2023-02-28T05:36:04;15.98;;;12.68;;
23362;SDS011;11853;48.080;11.960;2023-02-28T05:38:30;16.92;;;13.00;;
23362;SDS011;11853;48.080;11.960;2023-02-28T05:40:56;18.80;;;13.02;;
23362;SDS011;11853;48.080;11.960;2023-02-28T05:43:22;16.75;;;12.73;;
23362;SDS011;11853;48.080;11.960;2023-02-28T05:45:47;16.70;;;12.50;;
23362;SDS011;11853;48.080;11.960;2023-02-28T05:48:13;19.02;;;13.90;;
23362;SDS011;11853;48.080;11.960;2023-02-28T05:50:39;19.05;;;14.55;;
23362;SDS011;11853;48.080;11.960;2023-02-28T05:53:05;17.30;;;14.35;;
23362;SDS011;11853;48.080;11.960;2023-02-28T05:55:30;16.98;;;14.07;;
23362;SDS011;11853;48.080;11.960;2023-02-28T05:57:56;17.63;;;15.00;;
23362;SDS011;11853;48.080;11.960;2023-02-28T06:00:21;17.73;;;14.25;;
23362;SDS011;11853;48.080;11.960;2023-02-28T06:02:47;18.98;;;14.95;;
23362;SDS011;11853;48.080;11.960;2023-02-28T06:05:14;20.38;;;15.45;;
23362;SDS011;11853;48.080;11.960;2023-02-28T06:07:41;18.45;;;15.43;;
23362;SDS011;11853;48.080;11.960;2023-02-28T06:10:08;20.90;;;15.30;;
23362;SDS011;11853;48.080;11.960;2023-02-28T06:12:34;19.73;;;15.18;;
23362;SDS011;11853;48.080;11.960;2023-02-28T06:15:00;20.60;;;15.32;;
23362;SDS011;11853;48.080;11.960;2023-02-28T06:17:25;18.65;;;15.60;;
23362;SDS011;11853;48.080;11.960;2023-02-28T06:19:51;17.88;;;14.73;;
23362;SDS011;11853;48.080;11.960;2023-02-28T06:22:16;18.63;;;15.65;;
23362;SDS011;11853;48.080;11.960;2023-02-28T06:24:42;18.27;;;15.57;;
23362;SDS011;11853;48.080;11.960;2023-02-28T06:27:07;20.63;;;16.77;;
23362;SDS011;11853;48.080;11.960;2023-02-28T06:29:33;18.10;;;15.88;;
23362;SDS011;11853;48.080;11.960;2023-02-28T06:31:59;19.60;;;15.40;;
23362;SDS011;11853;48.080;11.960;2023-02-28T06:34:25;20.40;;;15.88;;
23362;SDS011;11853;48.080;11.960;2023-02-28T06:36:51;19.92;;;16.58;;
23362;SDS011;11853;48.080;11.960;2023-02-28T06:39:17;19.77;;;16.27;;
23362;SDS011;11853;48.080;11.960;2023-02-28T06:41:42;22.67;;;17.45;;
23362;SDS011;11853;48.080;11.960;2023-02-28T06:44:18;21.23;;;16.58;;
23362;SDS011;11853;48.080;11.960;2023-02-28T06:46:44;19.65;;;16.45;;
23362;SDS011;11853;48.080;11.960;2023-02-28T06:49:11;22.73;;;19.02;;
23362;SDS011;11853;48.080;11.960;2023-02-28T06:51:38;24.33;;;18.48;;
23362;SDS011;11853;48.080;11.960;2023-02-28T06:54:06;23.67;;;18.55;;
23362;SDS011;11853;48.080;11.960;2023-02-28T06:56:35;21.75;;;17.70;;
23362;SDS011;11853;48.080;11.960;2023-02-28T06:59:00;21.83;;;17.20;;
23362;SDS011;11853;48.080;11.960;2023-02-28T07:01:26;22.70;;;17.92;;
23362;SDS011;11853;48.080;11.960;2023-02-28T07:03:53;20.33;;;17.15;;
23362;SDS011;11853;48.080;11.960;2023-02-28T07:06:20;19.27;;;16.92;;
23362;SDS011;11853;48.080;11.960;2023-02-28T07:08:47;19.92;;;16.40;;
23362;SDS011;11853;48.080;11.960;2023-02-28T07:11:15;18.88;;;16.38;;
23362;SDS011;11853;48.080;11.960;2023-02-28T07:13:40;20.40;;;16.00;;
23362;SDS011;11853;48.080;11.960;2023-02-28T07:16:06;22.48;;;16.70;;
23362;SDS011;11853;48.080;11.960;2023-02-28T07:18:34;22.90;;;19.08;;
23362;SDS011;11853;48.080;11.960;2023-02-28T07:21:04;19.15;;;16.42;;
23362;SDS011;11853;48.080;11.960;2023-02-28T07:23:31;20.65;;;15.88;;
23362;SDS011;11853;48.080;11.960;2023-02-28T07:25:57;20.15;;;16.23;;
23362;SDS011;11853;48.080;11.960;2023-02-28T07:28:23;18.65;;;15.55;;
23362;SDS011;11853;48.080;11.960;2023-02-28T07:30:49;21.10;;;15.35;;
23362;SDS011;11853;48.080;11.960;2023-02-28T07:33:15;18.20;;;15.40;;
23362;SDS011;11853;48.080;11.960;2023-02-28T07:35:40;19.08;;;16.38;;
23362;SDS011;11853;48.080;11.960;2023-02-28T07:38:06;19.65;;;16.80;;
23362;SDS011;11853;48.080;11.960;2023-02-28T07:40:36;21.73;;;18.05;;
23362;SDS011;11853;48.080;11.960;2023-02-28T07:43:01;18.98;;;16.75;;
23362;SDS011;11853;48.080;11.960;2023-02-28T07:45:28;21.25;;;16.92;;
23362;SDS011;11853;48.080;11.960;2023-02-28T07:47:54;19.73;;;16.33;;
23362;SDS011;11853;48.080;11.960;2023-02-28T07:50:20;20.73;;;16.75;;
23362;SDS011;11853;48.080;11.960;2023-02-28T07:52:46;22.75;;;17.98;;
23362;SDS011;11853;48.080;11.960;2023-02-28T07:55:11;19.05;;;16.98;;
23362;SDS011;11853;48.080;11.960;2023-02-28T07:57:38;21.55;;;17.90;;
23362;SDS011;11853;48.080;11.960;2023-02-28T08:00:06;20.30;;;16.80;;
23362;SDS011;11853;48.080;11.960;2023-02-28T08:02:34;21.50;;;17.27;;
23362;SDS011;11853;48.080;11.960;2023-02-28T08:05:00;23.15;;;18.13;;
23362;SDS011;11853;48.080;11.960;2023-02-28T08:07:26;21.05;;;17.10;;
23362;SDS011;11853;48.080;11.960;2023-02-28T08:09:52;21.85;;;18.05;;
23362;SDS011;11853;48.080;11.960;2023-02-28T08:12:17;21.05;;;17.75;;
23362;SDS011;11853;48.080;11.960;2023-02-28T08:14:43;22.67;;;18.38;;
23362;SDS011;11853;48.080;11.960;2023-02-28T08:17:09;21.58;;;18.02;;
23362;SDS011;11853;48.080;11.960;2023-02-28T08:19:35;21.42;;;18.33;;
23362;SDS011;11853;48.080;11.960;2023-02-28T08:22:00;21.27;;;17.60;;
23362;SDS011;11853;48.080;11.960;2023-02-28T08:24:26;20.38;;;17.45;;
23362;SDS011;11853;48.080;11.960;2023-02-28T08:26:52;23.60;;;19.63;;
23362;SDS011;11853;48.080;11.960;2023-02-28T08:29:17;22.73;;;18.67;;
23362;SDS011;11853;48.080;11.960;2023-02-28T08:31:43;22.80;;;17.92;;
23362;SDS011;11853;48.080;11.960;2023-02-28T08:34:09;23.48;;;19.05;;
23362;SDS011;11853;48.080;11.960;2023-02-28T08:36:38;22.05;;;18.58;;
23362;SDS011;11853;48.080;11.960;2023-02-28T08:39:04;20.45;;;18.23;;
23362;SDS011;11853;48.080;11.960;2023-02-28T08:41:31;24.48;;;18.88;;
23362;SDS011;11853;48.080;11.960;2023-02-28T08:43:57;24.35;;;18.55;;
23362;SDS011;11853;48.080;11.960;2023-02-28T08:46:23;21.88;;;18.00;;
23362;SDS011;11853;48.080;11.960;2023-02-28T08:48:51;20.85;;;17.95;;
23362;SDS011;11853;48.080;11.960;2023-02-28T08:51:18;25.90;;;18.90;;
23362;SDS011;11853;48.080;11.960;2023-02-28T08:53:51;24.08;;;18.67;;
23362;SDS011;11853;48.080;11.960;2023-02-28T08:56:20;23.10;;;19.10;;
23362;SDS011;11853;48.080;11.960;2023-02-28T08:58:47;22.23;;;18.30;;
23362;SDS011;11853;48.080;11.960;2023-02-28T09:01:19;23.88;;;17.98;;
23362;SDS011;11853;48.080;11.960;2023-02-28T09:03:47;21.27;;;17.88;;
23362;SDS011;11853;48.080;11.960;2023-02-28T09:06:16;22.38;;;17.52;;
23362;SDS011;11853;48.080;11.960;2023-02-28T09:08:43;23.52;;;18.45;;
23362;SDS011;11853;48.080;11.960;2023-02-28T09:11:09;20.70;;;18.20;;
23362;SDS011;11853;48.080;11.960;2023-02-28T09:13:35;20.88;;;17.35;;
23362;SDS011;11853;48.080;11.960;2023-02-28T09:16:02;23.60;;;18.33;;
23362;SDS011;11853;48.080;11.960;2023-02-28T09:18:30;24.38;;;19.13;;
23362;SDS011;11853;48.080;11.960;2023-02-28T09:20:56;20.48;;;17.13;;
23362;SDS011;11853;48.080;11.960;2023-02-28T09:23:22;22.50;;;18.45;;
23362;SDS011;11853;48.080;11.960;2023-02-28T09:25:49;22.58;;;17.77;;
23362;SDS011;11853;48.080;11.960;2023-02-28T09:28:17;22.73;;;17.63;;
23362;SDS011;11853;48.080;11.960;2023-02-28T09:30:47;22.58;;;17.27;;
23362;SDS011;11853;48.080;11.960;2023-02-28T09:33:16;24.48;;;19.08;;
23362;SDS011;11853;48.080;11.960;2023-02-28T09:35:44;28.05;;;19.30;;
23362;SDS011;11853;48.080;11.960;2023-02-28T09:38:10;23.17;;;17.58;;
23362;SDS011;11853;48.080;11.960;2023-02-28T09:40:59;22.33;;;18.00;;
23362;SDS011;11853;48.080;11.960;2023-02-28T09:43:38;23.10;;;17.77;;
23362;SDS011;11853;48.080;11.960;2023-02-28T09:46:12;24.42;;;18.58;;
23362;SDS011;11853;48.080;11.960;2023-02-28T09:48:47;21.55;;;17.65;;
23362;SDS011;11853;48.080;11.960;2023-02-28T09:51:28;25.52;;;18.58;;
23362;SDS011;11853;48.080;11.960;2023-02-28T09:54:05;25.42;;;19.25;;
23362;SDS011;11853;48.080;11.960;2023-02-28T09:59:06;21.60;;;17.25;;
23362;SDS011;11853;48.080;11.960;2023-02-28T10:01:50;22.23;;;18.30;;
23362;SDS011;11853;48.080;11.960;2023-02-28T10:10:02;20.98;;;17.27;;
23362;SDS011;11853;48.080;11.960;2023-02-28T10:12:33;27.85;;;19.73;;
23362;SDS011;11853;48.080;11.960;2023-02-28T10:15:04;27.85;;;21.05;;
23362;SDS011;11853;48.080;11.960;2023-02-28T10:17:35;25.45;;;18.30;;
23362;SDS011;11853;48.080;11.960;2023-02-28T10:20:05;22.25;;;18.40;;
23362;SDS011;11853;48.080;11.960;2023-02-28T10:25:33;21.45;;;16.45;;
23362;SDS011;11853;48.080;11.960;2023-02-28T10:28:04;22.05;;;17.27;;
23362;SDS011;11853;48.080;11.960;2023-02-28T10:30:56;23.13;;;17.92;;
23362;SDS011;11853;48.080;11.960;2023-02-28T10:33:29;23.95;;;18.65;;
23362;SDS011;11853;48.080;11.960;2023-02-28T10:35:57;20.98;;;17.30;;
23362;SDS011;11853;48.080;11.960;2023-02-28T10:38:25;20.02;;;17.27;;
23362;SDS011;11853;48.080;11.960;2023-02-28T10:41:02;21.95;;;16.65;;
23362;SDS011;11853;48.080;11.960;2023-02-28T10:43:35;24.98;;;18.45;;
23362;SDS011;11853;48.080;11.960;2023-02-28T10:48:36;20.40;;;17.47;;
23362;SDS011;11853;48.080;11.960;2023-02-28T10:51:02;19.75;;;17.13;;
23362;SDS011;11853;48.080;11.960;2023-02-28T11:01:43;20.50;;;15.95;;
23362;SDS011;11853;48.080;11.960;2023-02-28T11:04:18;21.08;;;17.48;;
23362;SDS011;11853;48.080;11.960;2023-02-28T11:06:58;19.83;;;16.80;;
23362;SDS011;11853;48.080;11.960;2023-02-28T11:11:56;34.60;;;21.30;;
23362;SDS011;11853;48.080;11.960;2023-02-28T11:14:24;21.63;;;17.70;;
23362;SDS011;11853;48.080;11.960;2023-02-28T11:16:53;20.23;;;17.42;;
23362;SDS011;11853;48.080;11.960;2023-02-28T11:19:35;21.50;;;17.35;;
23362;SDS011;11853;48.080;11.960;2023-02-28T11:22:05;21.52;;;16.75;;
23362;SDS011;11853;48.080;11.960;2023-02-28T11:24:33;19.55;;;15.95;;
23362;SDS011;11853;48.080;11.960;2023-02-28T11:27:02;21.63;;;17.38;;
23362;SDS011;11853;48.080;11.960;2023-02-28T11:29:29;19.65;;;16.70;;
23362;SDS011;11853;48.080;11.960;2023-02-28T11:34:41;21.63;;;18.00;;
23362;SDS011;11853;48.080;11.960;2023-02-28T11:37:12;19.90;;;17.10;;
23362;SDS011;11853;48.080;11.960;2023-02-28T11:39:43;20.50;;;17.60;;
23362;SDS011;11853;48.080;11.960;2023-02-28T11:45:15;21.40;;;17.07;;
23362;SDS011;11853;48.080;11.960;2023-02-28T11:48:27;20.95;;;16.85;;
23362;SDS011;11853;48.080;11.960;2023-02-28T11:51:18;20.73;;;16.65;;
23362;SDS011;11853;48.080;11.960;2023-02-28T11:54:47;19.17;;;16.35;;
23362;SDS011;11853;48.080;11.960;2023-02-28T12:24:10;19.60;;;16.13;;
23362;SDS011;11853;48.080;11.960;2023-02-28T12:26:49;21.90;;;16.95;;
23362;SDS011;11853;48.080;11.960;2023-02-28T12:29:41;19.88;;;16.42;;
23362;SDS011;11853;48.080;11.960;2023-02-28T12:34:56;20.35;;;15.45;;
23362;SDS011;11853;48.080;11.960;2023-02-28T12:37:49;17.33;;;15.50;;
23362;SDS011;11853;48.080;11.960;2023-02-28T12:40:25;18.33;;;15.50;;
23362;SDS011;11853;48.080;11.960;2023-02-28T12:43:02;23.60;;;15.77;;
23362;SDS011;11853;48.080;11.960;2023-02-28T12:48:24;19.05;;;16.10;;
23362;SDS011;11853;48.080;11.960;2023-02-28T12:50:56;18.40;;;15.18;;
23362;SDS011;11853;48.080;11.960;2023-02-28T12:59:00;18.95;;;15.10;;
23362;SDS011;11853;48.080;11.960;2023-02-28T13:01:36;17.35;;;14.85;;
23362;SDS011;11853;48.080;11.960;2023-02-28T13:09:37;17.98;;;14.57;;
23362;SDS011;11853;48.080;11.960;2023-02-28T13:12:12;19.08;;;14.40;;
23362;SDS011;11853;48.080;11.960;2023-02-28T13:14:39;17.15;;;14.65;;
23362;SDS011;11853;48.080;11.960;2023-02-28T13:19:44;18.58;;;14.77;;
23362;SDS011;11853;48.080;11.960;2023-02-28T13:22:21;18.65;;;15.18;;
23362;SDS011;11853;48.080;11.960;2023-02-28T13:27:52;18.27;;;13.70;;
23362;SDS011;11853;48.080;11.960;2023-02-28T13:38:45;17.50;;;14.65;;
23362;SDS011;11853;48.080;11.960;2023-02-28T13:49:18;17.90;;;14.60;;
23362;SDS011;11853;48.080;11.960;2023-02-28T13:51:48;16.42;;;13.95;;
23362;SDS011;11853;48.080;11.960;2023-02-28T13:54:32;17.90;;;15.00;;
23362;SDS011;11853;48.080;11.960;2023-02-28T13:57:20;20.52;;;15.88;;
23362;SDS011;11853;48.080;11.960;2023-02-28T14:05:35;15.65;;;13.95;;
23362;SDS011;11853;48.080;11.960;2023-02-28T14:10:49;18.83;;;16.08;;
23362;SDS011;11853;48.080;11.960;2023-02-28T14:18:41;18.52;;;15.00;;
23362;SDS011;11853;48.080;11.960;2023-02-28T14:21:24;19.67;;;15.55;;
23362;SDS011;11853;48.080;11.960;2023-02-28T14:26:49;17.73;;;14.80;;
23362;SDS011;11853;48.080;11.960;2023-02-28T14:29:34;18.08;;;14.27;;
23362;SDS011;11853;48.080;11.960;2023-02-28T14:37:20;18.00;;;14.77;;
23362;SDS011;11853;48.080;11.960;2023-02-28T14:39:52;15.93;;;13.25;;
23362;SDS011;11853;48.080;11.960;2023-02-28T14:42:28;13.90;;;12.38;;
23362;SDS011;11853;48.080;11.960;2023-02-28T14:44:56;14.65;;;13.10;;
23362;SDS011;11853;48.080;11.960;2023-02-28T14:47:22;15.35;;;13.10;;
23362;SDS011;11853;48.080;11.960;2023-02-28T14:49:51;15.30;;;13.13;;
23362;SDS011;11853;48.080;11.960;2023-02-28T14:52:19;15.45;;;12.68;;
23362;SDS011;11853;48.080;11.960;2023-02-28T14:54:53;14.27;;;12.65;;
23362;SDS011;11853;48.080;11.960;2023-02-28T14:57:39;16.73;;;14.30;;
23362;SDS011;11853;48.080;11.960;2023-02-28T15:00:23;14.40;;;12.90;;
23362;SDS011;11853;48.080;11.960;2023-02-28T15:02:58;17.50;;;13.07;;
23362;SDS011;11853;48.080;11.960;2023-02-28T15:05:34;15.07;;;13.48;;
23362;SDS011;11853;48.080;11.960;2023-02-28T15:08:01;18.40;;;15.02;;
23362;SDS011;11853;48.080;11.960;2023-02-28T15:10:38;21.27;;;17.45;;
23362;SDS011;11853;48.080;11.960;2023-02-28T15:13:11;22.25;;;16.75;;
23362;SDS011;11853;48.080;11.960;2023-02-28T15:15:58;16.52;;;13.88;;
23362;SDS011;11853;48.080;11.960;2023-02-28T15:21:17;18.73;;;14.57;;
23362;SDS011;11853;48.080;11.960;2023-02-28T15:26:24;15.00;;;13.07;;
23362;SDS011;11853;48.080;11.960;2023-02-28T15:28:58;17.20;;;12.52;;
23362;SDS011;11853;48.080;11.960;2023-02-28T15:31:29;14.82;;;12.00;;
23362;SDS011;11853;48.080;11.960;2023-02-28T15:34:03;14.57;;;12.88;;
23362;SDS011;11853;48.080;11.960;2023-02-28T15:36:30;19.38;;;13.48;;
23362;SDS011;11853;48.080;11.960;2023-02-28T15:38:59;13.88;;;11.77;;
23362;SDS011;11853;48.080;11.960;2023-02-28T15:41:29;14.55;;;13.00;;
23362;SDS011;11853;48.080;11.960;2023-02-28T15:46:45;16.48;;;13.15;;
23362;SDS011;11853;48.080;11.960;2023-02-28T15:49:21;14.27;;;12.18;;
23362;SDS011;11853;48.080;11.960;2023-02-28T15:51:49;17.67;;;13.57;;
23362;SDS011;11853;48.080;11.960;2023-02-28T15:54:37;17.08;;;13.60;;
23362;SDS011;11853;48.080;11.960;2023-02-28T15:57:05;18.10;;;12.90;;
23362;SDS011;11853;48.080;11.960;2023-02-28T15:59:33;15.90;;;11.95;;
23362;SDS011;11853;48.080;11.960;2023-02-28T16:02:03;16.73;;;12.15;;
23362;SDS011;11853;48.080;11.960;2023-02-28T16:04:54;15.43;;;12.18;;
23362;SDS011;11853;48.080;11.960;2023-02-28T16:07:24;15.30;;;12.63;;
23362;SDS011;11853;48.080;11.960;2023-02-28T16:09:51;14.07;;;12.18;;
23362;SDS011;11853;48.080;11.960;2023-02-28T16:12:16;16.75;;;12.93;;
23362;SDS011;11853;48.080;11.960;2023-02-28T16:14:42;15.40;;;12.73;;
23362;SDS011;11853;48.080;11.960;2023-02-28T16:17:15;13.50;;;12.02;;
23362;SDS011;11853;48.080;11.960;2023-02-28T16:19:46;15.48;;;12.93;;
23362;SDS011;11853;48.080;11.960;2023-02-28T16:22:11;16.27;;;14.07;;
23362;SDS011;11853;48.080;11.960;2023-02-28T16:24:37;17.30;;;13.20;;
23362;SDS011;11853;48.080;11.960;2023-02-28T16:27:03;35.80;;;23.50;;
23362;SDS011;11853;48.080;11.960;2023-02-28T16:29:31;20.33;;;15.25;;
23362;SDS011;11853;48.080;11.960;2023-02-28T16:32:00;18.25;;;13.85;;
23362;SDS011;11853;48.080;11.960;2023-02-28T16:34:29;18.65;;;14.48;;
23362;SDS011;11853;48.080;11.960;2023-02-28T16:36:54;20.77;;;16.33;;
23362;SDS011;11853;48.080;11.960;2023-02-28T16:39:20;21.85;;;16.55;;
23362;SDS011;11853;48.080;11.960;2023-02-28T16:41:45;20.42;;;14.52;;
23362;SDS011;11853;48.080;11.960;2023-02-28T16:44:33;18.58;;;13.32;;
23362;SDS011;11853;48.080;11.960;2023-02-28T16:47:00;18.92;;;14.32;;
23362;SDS011;11853;48.080;11.960;2023-02-28T16:49:27;16.45;;;13.65;;
23362;SDS011;11853;48.080;11.960;2023-02-28T16:51:53;18.48;;;14.60;;
23362;SDS011;11853;48.080;11.960;2023-02-28T16:54:18;18.05;;;13.55;;
23362;SDS011;11853;48.080;11.960;2023-02-28T16:56:45;18.65;;;15.25;;
23362;SDS011;11853;48.080;11.960;2023-02-28T16:59:12;17.23;;;14.55;;
23362;SDS011;11853;48.080;11.960;2023-02-28T17:01:40;20.70;;;16.15;;
23362;SDS011;11853;48.080;11.960;2023-02-28T17:04:05;17.02;;;14.35;;
23362;SDS011;11853;48.080;11.960;2023-02-28T17:06:31;16.73;;;14.07;;
23362;SDS011;11853;48.080;11.960;2023-02-28T17:08:57;18.90;;;14.77;;
23362;SDS011;11853;48.080;11.960;2023-02-28T17:11:25;19.45;;;14.38;;
23362;SDS011;11853;48.080;11.960;2023-02-28T17:13:51;18.77;;;14.68;;
23362;SDS011;11853;48.080;11.960;2023-02-28T17:19:02;19.90;;;15.65;;
23362;SDS011;11853;48.080;11.960;2023-02-28T17:21:29;24.88;;;17.30;;